createdAt,value
2022-08-23T00:08:54.508Z,1802.92908
2022-08-23T00:23:56.784Z,1634.26794
2022-08-23T00:38:59.124Z,1691.45764
2022-08-23T00:54:01.568Z,1474.33069
2022-08-23T01:09:03.966Z,1512.13403
2022-08-23T01:24:06.208Z,1250.41858
2022-08-23T01:39:08.520Z,911.15771
2022-08-23T01:54:10.846Z,874.32367
2022-08-23T02:09:17.531Z,476.90384
2022-08-23T02:24:20.340Z,170.59975
2022-08-23T02:39:22.687Z,86.26919
2022-08-23T02:54:25.012Z,32.95677
2022-08-23T03:09:27.340Z,5.8159
2022-08-23T03:24:29.658Z,0
2022-08-23T03:39:31.948Z,0
2022-08-23T03:54:34.407Z,0
2022-08-23T04:09:36.825Z,0
2022-08-23T04:24:39.189Z,0
2022-08-23T04:39:43.173Z,0
2022-08-23T04:54:53.659Z,0
2022-08-23T05:09:56.369Z,0
2022-08-23T05:25:00.251Z,0
2022-08-23T05:40:03.998Z,0
2022-08-23T05:55:06.259Z,0
2022-08-23T06:10:08.598Z,0
2022-08-23T06:25:18.541Z,0
2022-08-23T06:40:20.918Z,0
2022-08-23T06:55:23.290Z,0
2022-08-23T07:10:25.674Z,0
2022-08-23T07:25:27.953Z,0
2022-08-23T07:40:30.375Z,0
2022-08-23T07:55:36.812Z,0
2022-08-23T08:10:39.280Z,0
2022-08-23T08:25:41.551Z,0
2022-08-23T08:40:43.955Z,0
2022-08-23T08:55:46.327Z,0
2022-08-23T09:10:48.638Z,0
2022-08-23T09:25:51.002Z,0
2022-08-23T09:40:53.244Z,0
2022-08-23T09:55:55.515Z,0
2022-08-23T10:10:57.816Z,0
2022-08-23T10:26:00.157Z,0
2022-08-23T10:41:02.495Z,0
2022-08-23T10:56:04.722Z,0
2022-08-23T11:11:07.020Z,0
2022-08-23T11:26:09.341Z,0
2022-08-23T11:41:11.820Z,0
2022-08-23T11:56:14.149Z,0
2022-08-23T12:11:16.463Z,0
2022-08-23T12:26:18.769Z,0.96932
2022-08-23T12:41:21.075Z,6.78522
2022-08-23T12:56:31.575Z,44.58857
2022-08-23T13:11:34.767Z,165.75316
2022-08-23T13:26:37.050Z,283.0405
2022-08-23T13:41:39.502Z,411.95959
2022-08-23T13:56:41.784Z,1182.56641
2022-08-23T14:11:44.094Z,3833.64771
2022-08-23T14:26:51.756Z,13397.89551
2022-08-23T14:41:54.674Z,3430.41187
2022-08-23T14:56:56.989Z,3589.37988
2022-08-23T15:27:31.534Z,4110.87207
2022-08-23T15:42:33.824Z,2042.35034
2022-08-23T15:57:36.118Z,2608.4314
2022-08-23T16:12:38.460Z,2057.85938
2022-08-23T16:27:40.785Z,2014.24011
2022-08-23T16:42:43.100Z,2236.21362
2022-08-23T16:57:45.543Z,2757.70605
2022-08-23T17:12:47.836Z,4025.57227
2022-08-23T17:27:50.301Z,5148.04102
2022-08-23T17:42:52.582Z,5637.5459
2022-08-23T17:58:02.171Z,5719.93799
2022-08-23T18:13:06.562Z,5900.23096
2022-08-23T18:28:08.867Z,6418.81543
2022-08-23T18:43:11.228Z,5145.1333
2022-08-23T18:58:13.502Z,5812.02295
2022-08-23T19:13:15.841Z,5937.06494
2022-08-23T19:28:18.145Z,5771.31152
2022-08-23T19:43:20.431Z,5986.5
2022-08-23T19:58:22.753Z,6710.57959
2022-08-23T20:13:25.057Z,6161.94629
2022-08-23T20:28:27.397Z,5779.06641
2022-08-23T20:43:29.629Z,6444.98682
2022-08-23T20:58:31.949Z,6480.85156
2022-08-23T21:13:34.280Z,1693.39636
2022-08-23T21:28:36.532Z,1576.10901
2022-08-23T21:43:38.874Z,1464.63757
2022-08-23T21:58:41.174Z,1374.49109
2022-08-23T22:13:43.447Z,1432.65015
2022-08-23T22:28:45.753Z,2165.45361
2022-08-23T22:43:48.313Z,15875.46973
2022-08-23T22:58:52.726Z,16213.76074
2022-08-23T23:29:09.471Z,16725.56055
2022-08-23T23:44:14.060Z,17668.70508
2022-08-23T23:59:16.297Z,2004.547
